createdAt,value
2023-02-15T00:00:14.215Z,3.33
2023-02-15T00:03:18.417Z,3.34
2023-02-15T00:06:22.917Z,3.39
2023-02-15T00:09:26.987Z,3.42
2023-02-15T00:12:30.985Z,3.45
2023-02-15T00:15:35.096Z,3.43
2023-02-15T00:18:40.354Z,3.36
2023-02-15T00:21:44.433Z,3.44
2023-02-15T00:24:48.391Z,3.35
2023-02-15T00:27:52.638Z,3.34
2023-02-15T00:31:06.284Z,3.36
2023-02-15T00:34:22.224Z,3.33
2023-02-15T00:37:26.330Z,3.34
2023-02-15T00:40:30.553Z,3.30
2023-02-15T00:43:36.570Z,3.29
2023-02-15T00:46:40.759Z,3.28
2023-02-15T00:49:44.982Z,3.27
2023-02-15T00:52:49.028Z,3.21
2023-02-15T00:55:53.567Z,3.16
2023-02-15T00:58:57.545Z,3.15
2023-02-15T01:02:01.936Z,3.14
2023-02-15T01:05:06.933Z,3.14
2023-02-15T01:08:11.123Z,3.19
2023-02-15T01:11:25.000Z,3.10
2023-02-15T01:14:29.645Z,3.08
2023-02-15T01:17:33.807Z,3.10
2023-02-15T01:20:42.039Z,3.04
2023-02-15T01:23:46.112Z,3.06
2023-02-15T01:26:50.014Z,3.11
2023-02-15T01:29:54.193Z,3.04
2023-02-15T01:32:58.541Z,3.03
2023-02-15T01:36:03.683Z,3.01
2023-02-15T01:39:08.783Z,2.91
2023-02-15T01:42:13.127Z,2.85
2023-02-15T01:45:33.056Z,2.89
2023-02-15T01:48:45.243Z,2.86
2023-02-15T01:51:51.146Z,2.77
2023-02-15T01:54:55.193Z,2.73
2023-02-15T01:58:00.098Z,2.72
2023-02-15T02:01:05.502Z,2.62
2023-02-15T02:04:16.304Z,2.64
2023-02-15T02:07:23.114Z,2.69
2023-02-15T02:10:27.133Z,2.67
2023-02-15T02:13:31.142Z,2.66
2023-02-15T02:17:06.000Z,2.63
2023-02-15T02:20:10.069Z,2.60
2023-02-15T02:23:20.126Z,2.61
2023-02-15T02:26:54.946Z,2.59
2023-02-15T02:30:34.965Z,2.60
2023-02-15T02:33:42.096Z,2.61
2023-02-15T02:37:08.635Z,2.66
2023-02-15T02:40:28.651Z,2.64
2023-02-15T02:43:52.093Z,2.62
2023-02-15T02:47:00.327Z,2.62
2023-02-15T02:50:08.618Z,2.61
2023-02-15T02:53:12.923Z,2.55
2023-02-15T02:56:39.474Z,2.52
2023-02-15T02:59:47.610Z,2.48
2023-02-15T03:02:59.346Z,2.50
2023-02-15T03:06:11.944Z,2.44
2023-02-15T03:09:22.279Z,2.51
2023-02-15T03:12:32.327Z,2.52
2023-02-15T03:15:58.741Z,2.44
2023-02-15T03:19:06.898Z,2.46
2023-02-15T03:22:23.993Z,2.52
2023-02-15T03:25:33.651Z,2.45
2023-02-15T03:28:46.361Z,2.43
2023-02-15T03:32:03.816Z,2.52
2023-02-15T03:35:08.733Z,2.43
2023-02-15T03:38:19.698Z,2.38
2023-02-15T03:41:26.673Z,2.36
2023-02-15T03:44:33.185Z,2.32
2023-02-15T03:47:58.906Z,2.32
2023-02-15T03:51:27.057Z,2.27
2023-02-15T03:54:43.959Z,2.30
2023-02-15T03:58:07.336Z,2.30
2023-02-15T04:01:49.686Z,2.25
2023-02-15T04:04:53.912Z,2.25
2023-02-15T04:07:58.308Z,2.25
2023-02-15T04:11:02.511Z,2.25
2023-02-15T04:14:25.082Z,2.22
2023-02-15T04:17:29.571Z,2.21
2023-02-15T04:20:52.262Z,2.22
2023-02-15T04:24:15.266Z,2.18
2023-02-15T04:27:19.530Z,2.16
2023-02-15T04:30:26.833Z,2.14
2023-02-15T04:33:30.955Z,2.08
2023-02-15T04:36:35.438Z,1.99
2023-02-15T04:39:39.519Z,2.05
2023-02-15T04:42:43.354Z,2.06
2023-02-15T04:45:51.624Z,1.93
2023-02-15T04:48:56.184Z,1.91
2023-02-15T04:52:00.246Z,1.88
2023-02-15T04:55:04.542Z,1.93
2023-02-15T04:58:08.354Z,1.87
2023-02-15T05:01:12.735Z,1.86
2023-02-15T05:04:17.315Z,1.88
2023-02-15T05:07:21.445Z,1.88
2023-02-15T05:10:25.456Z,1.85
2023-02-15T05:13:29.804Z,1.80
2023-02-15T05:16:34.163Z,1.89
2023-02-15T05:19:38.416Z,1.86
2023-02-15T05:22:42.880Z,1.85
2023-02-15T05:26:09.796Z,1.81
2023-02-15T05:29:14.108Z,1.71
2023-02-15T05:32:18.176Z,1.70
2023-02-15T05:35:22.286Z,1.67
2023-02-15T05:38:26.391Z,1.64
2023-02-15T05:41:30.469Z,1.65
2023-02-15T05:44:34.379Z,1.64
2023-02-15T05:47:38.303Z,1.64
2023-02-15T05:50:42.694Z,1.66
2023-02-15T05:53:46.623Z,1.61
2023-02-15T05:56:50.886Z,1.69
2023-02-15T05:59:55.250Z,1.60
2023-02-15T06:02:59.122Z,1.62
2023-02-15T06:06:05.313Z,1.62
2023-02-15T06:09:14.141Z,1.64
2023-02-15T06:12:18.141Z,1.61
2023-02-15T06:15:22.753Z,1.58
2023-02-15T06:18:27.139Z,1.55
2023-02-15T06:21:31.677Z,1.55
2023-02-15T06:24:35.851Z,1.51
2023-02-15T06:27:42.884Z,1.57
2023-02-15T06:30:47.789Z,1.57
2023-02-15T06:33:52.008Z,1.66
2023-02-15T06:36:56.416Z,1.64
2023-02-15T06:40:03.273Z,1.63
2023-02-15T06:43:07.686Z,1.62
2023-02-15T06:46:11.893Z,1.61
2023-02-15T06:49:16.166Z,1.65
2023-02-15T06:52:20.384Z,1.70
2023-02-15T06:55:25.208Z,1.65
2023-02-15T06:58:29.869Z,1.64
2023-02-15T07:01:33.758Z,1.65
2023-02-15T07:04:37.957Z,1.67
2023-02-15T07:07:42.218Z,1.72
2023-02-15T07:10:46.632Z,1.67
2023-02-15T07:13:50.884Z,1.72
2023-02-15T07:16:57.318Z,1.89
2023-02-15T07:20:01.236Z,1.82
2023-02-15T07:23:05.906Z,1.87
2023-02-15T07:26:09.922Z,1.89
2023-02-15T07:29:14.305Z,1.91
2023-02-15T07:32:18.341Z,1.92
2023-02-15T07:35:22.332Z,1.94
2023-02-15T07:38:28.095Z,2.00
2023-02-15T07:41:32.192Z,2.05
2023-02-15T07:44:36.118Z,2.08
2023-02-15T07:47:40.033Z,2.20
2023-02-15T07:50:44.348Z,2.22
2023-02-15T07:53:48.486Z,2.34
2023-02-15T07:56:53.052Z,2.37
2023-02-15T07:59:57.151Z,2.42
2023-02-15T08:03:16.230Z,2.36
2023-02-15T08:06:22.647Z,2.45
2023-02-15T08:09:26.649Z,2.62
2023-02-15T08:12:31.040Z,2.58
2023-02-15T08:15:35.294Z,2.61
2023-02-15T08:18:38.961Z,2.71
2023-02-15T08:21:54.352Z,2.80
2023-02-15T08:24:58.155Z,3.08
2023-02-15T08:28:02.398Z,3.53
2023-02-15T08:31:10.948Z,3.97
2023-02-15T08:34:17.907Z,4.22
2023-02-15T08:37:21.741Z,4.36
2023-02-15T08:40:25.584Z,4.69
2023-02-15T08:43:29.605Z,4.92
2023-02-15T08:46:36.391Z,5.11
2023-02-15T08:49:40.351Z,5.23
2023-02-15T08:52:44.222Z,5.44
2023-02-15T08:55:56.717Z,5.64
2023-02-15T08:59:01.194Z,5.69
2023-02-15T09:02:05.415Z,5.81
2023-02-15T09:05:10.093Z,5.74
2023-02-15T09:08:14.323Z,5.77
2023-02-15T09:11:26.026Z,5.82
2023-02-15T09:14:30.315Z,5.90
2023-02-15T09:17:34.511Z,6.09
2023-02-15T09:20:38.273Z,6.40
2023-02-15T09:23:43.670Z,6.53
2023-02-15T09:26:49.218Z,6.84
2023-02-15T09:29:53.136Z,6.95
2023-02-15T09:32:57.576Z,6.98
2023-02-15T09:36:02.215Z,6.87
2023-02-15T09:39:20.834Z,6.80
2023-02-15T09:42:53.712Z,6.80
2023-02-15T09:46:04.716Z,6.85
2023-02-15T09:49:24.847Z,6.93
2023-02-15T09:52:39.773Z,6.80
2023-02-15T09:56:07.676Z,6.89
2023-02-15T09:59:30.089Z,6.83
2023-02-15T10:02:54.408Z,6.76
2023-02-15T10:06:42.992Z,6.70
2023-02-15T10:10:02.555Z,6.67
2023-02-15T10:13:29.031Z,6.69
2023-02-15T10:17:03.118Z,6.70
2023-02-15T10:20:08.955Z,6.77
2023-02-15T10:23:28.407Z,6.94
2023-02-15T10:26:49.798Z,7.00
2023-02-15T10:29:57.583Z,6.99
2023-02-15T10:33:04.488Z,7.06
2023-02-15T10:36:18.060Z,7.19
2023-02-15T10:39:22.050Z,7.34
2023-02-15T10:42:40.833Z,7.45
2023-02-15T10:45:57.658Z,7.54
2023-02-15T10:49:10.819Z,7.74
2023-02-15T10:52:14.830Z,7.80
2023-02-15T10:55:23.588Z,8.03
2023-02-15T10:59:05.597Z,8.10
2023-02-15T11:02:40.891Z,8.22
2023-02-15T11:06:13.156Z,8.22
2023-02-15T11:09:19.254Z,8.26
2023-02-15T11:12:26.094Z,8.28
2023-02-15T11:15:37.864Z,8.41
2023-02-15T11:18:51.205Z,8.50
2023-02-15T11:22:00.005Z,8.57
2023-02-15T11:25:18.260Z,8.74
2023-02-15T11:28:34.869Z,8.73
2023-02-15T11:31:48.605Z,8.75
2023-02-15T11:35:05.772Z,8.76
2023-02-15T11:38:21.586Z,8.76
2023-02-15T11:41:29.790Z,8.73
2023-02-15T11:44:38.283Z,8.80
2023-02-15T11:47:42.281Z,8.96
2023-02-15T11:50:46.772Z,8.96
2023-02-15T11:53:52.444Z,8.99
2023-02-15T11:57:23.222Z,9.04
2023-02-15T12:00:32.448Z,9.14
2023-02-15T12:03:49.753Z,9.19
2023-02-15T12:07:02.193Z,9.29
2023-02-15T12:10:20.992Z,9.33
2023-02-15T12:13:25.012Z,9.39
2023-02-15T12:16:34.715Z,9.43
2023-02-15T12:19:41.478Z,9.52
2023-02-15T12:22:55.366Z,9.54
2023-02-15T12:25:59.913Z,9.63
2023-02-15T12:29:26.727Z,9.73
2023-02-15T12:32:36.682Z,9.76
2023-02-15T12:35:40.504Z,9.84
2023-02-15T12:39:02.628Z,9.92
2023-02-15T12:42:16.953Z,9.96
2023-02-15T12:45:20.923Z,9.96
2023-02-15T12:48:24.885Z,10.03
2023-02-15T12:51:29.189Z,10.06
2023-02-15T12:54:37.782Z,10.10
2023-02-15T12:57:44.073Z,10.14
2023-02-15T13:00:49.039Z,10.18
2023-02-15T13:04:01.014Z,10.24
2023-02-15T13:07:05.428Z,10.23
2023-02-15T13:10:25.472Z,10.35
2023-02-15T13:13:32.002Z,10.38
2023-02-15T13:16:39.846Z,10.35
2023-02-15T13:19:53.441Z,10.44
2023-02-15T13:23:06.073Z,10.48
2023-02-15T13:26:16.864Z,10.43
2023-02-15T13:29:36.168Z,10.51
2023-02-15T13:32:43.287Z,10.50
2023-02-15T13:36:08.720Z,10.50
2023-02-15T13:39:12.808Z,10.50
2023-02-15T13:42:39.076Z,10.55
2023-02-15T13:46:21.725Z,10.59
2023-02-15T13:49:40.585Z,10.62
2023-02-15T13:53:01.225Z,10.85
2023-02-15T13:56:20.294Z,10.93
2023-02-15T13:59:47.233Z,11.01
2023-02-15T14:03:19.988Z,10.91
2023-02-15T14:06:32.363Z,10.84
2023-02-15T14:09:56.049Z,10.78
2023-02-15T14:13:17.890Z,10.72
2023-02-15T14:17:00.721Z,10.65
2023-02-15T14:20:17.208Z,10.65
2023-02-15T14:23:30.590Z,10.65
2023-02-15T14:27:00.396Z,10.64
2023-02-15T14:30:16.252Z,10.59
2023-02-15T14:33:33.194Z,10.54
2023-02-15T14:36:39.134Z,10.58
2023-02-15T14:40:15.068Z,10.64
2023-02-15T14:43:21.947Z,10.53
2023-02-15T14:46:38.004Z,10.49
2023-02-15T14:49:41.990Z,10.43
2023-02-15T14:53:17.255Z,10.38
2023-02-15T14:56:23.542Z,10.30
2023-02-15T14:59:36.913Z,10.30
2023-02-15T15:02:51.323Z,10.24
2023-02-15T15:06:05.839Z,10.14
2023-02-15T15:09:13.504Z,10.06
2023-02-15T15:12:27.082Z,10.03
2023-02-15T15:15:30.722Z,9.93
2023-02-15T15:18:48.072Z,9.91
2023-02-15T15:21:57.239Z,9.86
2023-02-15T15:25:02.301Z,9.84
2023-02-15T15:28:07.091Z,9.79
2023-02-15T15:31:14.064Z,9.79
2023-02-15T15:34:50.733Z,9.85
2023-02-15T15:38:11.685Z,9.78
2023-02-15T15:41:24.506Z,9.69
2023-02-15T15:44:40.598Z,9.62
2023-02-15T15:48:09.056Z,9.53
2023-02-15T15:51:32.249Z,9.50
2023-02-15T15:54:40.971Z,9.45
2023-02-15T15:57:50.544Z,9.40
2023-02-15T16:01:00.600Z,9.34
2023-02-15T16:04:04.581Z,9.29
2023-02-15T16:07:17.745Z,9.23
2023-02-15T16:10:27.714Z,9.17
2023-02-15T16:13:32.026Z,9.18
2023-02-15T16:16:36.520Z,9.12
2023-02-15T16:19:43.114Z,9.11
2023-02-15T16:22:50.549Z,9.04
2023-02-15T16:26:06.517Z,8.98
2023-02-15T16:29:20.153Z,8.93
2023-02-15T16:32:27.115Z,8.99
2023-02-15T16:35:31.592Z,8.94
2023-02-15T16:38:44.772Z,8.89
2023-02-15T16:41:49.538Z,8.82
2023-02-15T16:45:01.523Z,8.69
2023-02-15T16:48:17.267Z,8.62
2023-02-15T16:51:28.667Z,8.53
2023-02-15T16:54:33.314Z,8.54
2023-02-15T16:57:39.400Z,8.52
2023-02-15T17:00:43.616Z,8.41
2023-02-15T17:03:50.523Z,8.36
2023-02-15T17:07:14.555Z,8.26
2023-02-15T17:10:29.999Z,8.13
2023-02-15T17:13:34.300Z,8.03
2023-02-15T17:16:50.310Z,8.01
2023-02-15T17:19:56.364Z,8.00
2023-02-15T17:23:03.850Z,7.98
2023-02-15T17:26:19.764Z,8.14
2023-02-15T17:29:39.611Z,7.95
2023-02-15T17:32:54.798Z,7.84
2023-02-15T17:36:23.490Z,7.70
2023-02-15T17:39:27.915Z,7.66
2023-02-15T17:42:32.322Z,7.67
2023-02-15T17:45:48.704Z,7.60
2023-02-15T17:48:55.665Z,7.59
2023-02-15T17:51:59.630Z,7.52
2023-02-15T17:55:32.324Z,7.46
2023-02-15T17:58:40.200Z,7.42
2023-02-15T18:02:05.597Z,7.43
2023-02-15T18:05:32.865Z,7.47
2023-02-15T18:08:55.710Z,7.47
2023-02-15T18:12:00.324Z,7.53
2023-02-15T18:15:05.738Z,7.48
2023-02-15T18:18:12.364Z,7.44
2023-02-15T18:21:16.708Z,7.39
2023-02-15T18:24:24.338Z,7.33
2023-02-15T18:27:28.507Z,7.28
2023-02-15T18:30:33.444Z,7.28
2023-02-15T18:33:41.036Z,7.28
2023-02-15T18:36:45.625Z,7.24
2023-02-15T18:39:54.162Z,7.27
2023-02-15T18:42:58.300Z,7.27
2023-02-15T18:46:02.655Z,7.28
2023-02-15T18:49:06.552Z,7.26
2023-02-15T18:52:18.890Z,7.28
2023-02-15T18:55:28.098Z,7.36
2023-02-15T18:58:31.867Z,7.46
2023-02-15T19:01:35.706Z,7.52
2023-02-15T19:04:40.343Z,7.59
2023-02-15T19:07:51.484Z,7.56
2023-02-15T19:10:56.164Z,7.54
2023-02-15T19:14:00.127Z,7.50
2023-02-15T19:17:04.297Z,7.44
2023-02-15T19:20:19.317Z,7.45
2023-02-15T19:23:24.564Z,7.34
2023-02-15T19:26:44.628Z,7.26
2023-02-15T19:29:50.992Z,7.22
2023-02-15T19:32:55.874Z,7.19
2023-02-15T19:35:59.922Z,7.13
2023-02-15T19:39:03.973Z,7.01
2023-02-15T19:42:14.332Z,6.98
2023-02-15T19:45:21.952Z,6.87
2023-02-15T19:48:26.056Z,6.80
2023-02-15T19:51:30.594Z,6.79
2023-02-15T19:54:35.621Z,6.71
2023-02-15T19:57:39.941Z,6.66
2023-02-15T20:00:43.775Z,6.61
2023-02-15T20:03:47.990Z,6.58
2023-02-15T20:06:54.760Z,6.66
2023-02-15T20:09:59.090Z,6.57
2023-02-15T20:13:03.359Z,6.44
2023-02-15T20:16:10.583Z,6.38
2023-02-15T20:19:15.132Z,6.39
2023-02-15T20:22:29.027Z,6.29
2023-02-15T20:25:34.135Z,6.25
2023-02-15T20:28:38.109Z,6.13
2023-02-15T20:31:42.833Z,6.12
2023-02-15T20:34:47.253Z,6.13
2023-02-15T20:37:59.568Z,6.05
2023-02-15T20:41:22.232Z,5.98
2023-02-15T20:44:29.216Z,6.00
2023-02-15T20:47:33.254Z,5.92
2023-02-15T20:50:39.007Z,5.93
2023-02-15T20:53:43.191Z,5.80
2023-02-15T20:56:47.835Z,5.73
2023-02-15T20:59:51.701Z,5.68
2023-02-15T21:02:58.693Z,5.63
2023-02-15T21:06:02.505Z,5.64
2023-02-15T21:09:06.802Z,5.63
2023-02-15T21:12:16.528Z,5.61
2023-02-15T21:15:39.994Z,5.54
2023-02-15T21:18:43.953Z,5.50
2023-02-15T21:21:50.180Z,5.47
2023-02-15T21:24:55.101Z,5.40
2023-02-15T21:27:59.469Z,5.31
2023-02-15T21:31:03.968Z,5.30
2023-02-15T21:34:08.779Z,5.28
2023-02-15T21:37:34.356Z,5.29
2023-02-15T21:40:38.110Z,5.26
2023-02-15T21:44:00.715Z,5.15
2023-02-15T21:47:24.128Z,5.12
2023-02-15T21:50:47.209Z,5.04
2023-02-15T21:53:51.280Z,5.06
2023-02-15T21:56:55.098Z,5.00
2023-02-15T21:59:59.039Z,4.95
2023-02-15T22:03:05.013Z,4.92
2023-02-15T22:06:12.413Z,4.90
2023-02-15T22:09:19.705Z,4.86
2023-02-15T22:12:24.216Z,4.86
2023-02-15T22:15:34.616Z,4.80
2023-02-15T22:18:38.612Z,4.76
2023-02-15T22:21:43.001Z,4.71
2023-02-15T22:24:47.270Z,4.71
2023-02-15T22:27:53.642Z,4.74
2023-02-15T22:30:57.940Z,4.71
2023-02-15T22:34:02.681Z,4.68
2023-02-15T22:37:08.789Z,4.64
2023-02-15T22:40:17.633Z,4.63
2023-02-15T22:43:35.792Z,4.65
2023-02-15T22:46:40.709Z,4.54
2023-02-15T22:49:44.758Z,4.56
2023-02-15T22:52:49.354Z,4.61
2023-02-15T22:55:55.179Z,4.58
2023-02-15T22:59:03.059Z,4.56
2023-02-15T23:02:13.211Z,4.55
2023-02-15T23:05:24.566Z,4.53
2023-02-15T23:08:28.806Z,4.50
2023-02-15T23:11:33.020Z,4.49
2023-02-15T23:14:37.240Z,4.44
2023-02-15T23:17:41.444Z,4.40
2023-02-15T23:20:50.482Z,4.41
2023-02-15T23:23:59.022Z,4.36
2023-02-15T23:27:21.350Z,4.40
2023-02-15T23:30:25.613Z,4.33
2023-02-15T23:33:34.563Z,4.32
2023-02-15T23:36:39.482Z,4.28
2023-02-15T23:40:02.296Z,4.28
2023-02-15T23:43:10.934Z,4.16
2023-02-15T23:46:24.356Z,4.19
2023-02-15T23:49:29.012Z,4.16
2023-02-15T23:52:33.244Z,4.14
2023-02-15T23:55:40.777Z,4.16
2023-02-15T23:58:46.102Z,4.10
